This is the latest recevied weather packets stored in our database for station/object W9GWP. If no packets are shown the sender has not sent any weather packets the latest 10 day(s).
| Time | Temp. | Humidity | Pressure | Rain* | Wind** | Luminosity | Snow |
|---|---|---|---|---|---|---|---|
| 1777679864 | 5° C | 71% | 1047.4 hPa | 0 mm | - | 35 W/m² | - |
| 1777678959 | 5° C | 72% | 1047.4 hPa | 0 mm | - | 49 W/m² | - |
| 1777678056 | 5° C | 71% | 1047.6 hPa | 0 mm | - | 114 W/m² | - |
| 1777677155 | 4.44° C | 81% | 1047.2 hPa | 0 mm | - | 72 W/m² | - |
| 1777676254 | 4.44° C | 80% | 1047.3 hPa | 0 mm | - | 77 W/m² | - |
| 1777675351 | 4.44° C | 84% | 1047.2 hPa | 0 mm | - | 137 W/m² | - |
| 1777674452 | 4.44° C | 83% | 1047.3 hPa | 0.51 mm | - | 79 W/m² | - |
| 1777673548 | 5.56° C | 75% | 1047 hPa | 0 mm | - | 31 W/m² | - |
| 1777672646 | 6.11° C | 71% | 1046.9 hPa | 0 mm | - | 49 W/m² | - |
| 1777671745 | 6.11° C | 73% | 1046.8 hPa | 0 mm | - | 141 W/m² | - |
| 1777670839 | 6.11° C | 72% | 1046.8 hPa | 0 mm | - | 254 W/m² | - |
| 1777669936 | 6.67° C | 72% | 1046.8 hPa | 0 mm | - | 239 W/m² | - |
| 1777669032 | 6.11° C | 77% | 1047.1 hPa | 0 mm | - | 263 W/m² | - |
| 1777668127 | 5.56° C | 79% | 1047 hPa | 0 mm | - | 263 W/m² | - |
| 1777667224 | 5° C | 82% | 1046.9 hPa | 0.51 mm | - | 300 W/m² | - |
| 1777666320 | 5.56° C | 79% | 1047.1 hPa | 0 mm | - | 77 W/m² | - |
| 1777665417 | 6.67° C | 76% | 1046.8 hPa | 0 mm | - | 93 W/m² | - |
| 1777664516 | 6.67° C | 77% | 1046.8 hPa | 0 mm | - | 256 W/m² | - |
| 1777663615 | 6.67° C | 79% | 1046.6 hPa | 0 mm | - | 239 W/m² | - |
| 1777662713 | 6.11° C | 79% | 1046.6 hPa | 0 mm | - | 135 W/m² | - |
| 1777661812 | 6.11° C | 77% | 1046.3 hPa | 0 mm | - | 105 W/m² | - |
| 1777660910 | 7.22° C | 75% | 1046.2 hPa | 0 mm | - | 350 W/m² | - |
| 1777660006 | 6.67° C | 75% | 1045.9 hPa | 0 mm | - | 160 W/m² | - |
| 1777659103 | 7.22° C | 73% | 1046.2 hPa | 0 mm | - | 153 W/m² | - |
| 1777658200 | 6.67° C | 71% | 1045.7 hPa | 0 mm | - | 187 W/m² | - |
* Rain latest hour (hover to see other rain measurements)
** Current wind speed in m/s (hover to see current wind gust speed)